sensor_id;sensor_type;location;lat;lon;timestamp;pressure;altitude;pressure_sealevel;temperature;humidity
68380;BME280;57711;53.196;19.638;2023-04-04T00:00:27;101239.20;;;2.06;54.21
68380;BME280;57711;53.196;19.638;2023-04-04T00:03:13;101238.02;;;2.04;54.29
68380;BME280;57711;53.196;19.638;2023-04-04T00:05:40;101230.64;;;2.01;54.20
68380;BME280;57711;53.196;19.638;2023-04-04T00:08:07;101227.85;;;2.00;54.34
68380;BME280;57711;53.196;19.638;2023-04-04T00:10:35;101227.77;;;1.97;54.29
68380;BME280;57711;53.196;19.638;2023-04-04T00:13:02;101224.48;;;1.95;54.30
68380;BME280;57711;53.196;19.638;2023-04-04T00:15:29;101223.61;;;1.94;54.32
68380;BME280;57711;53.196;19.638;2023-04-04T00:17:56;101216.93;;;1.92;54.28
68380;BME280;57711;53.196;19.638;2023-04-04T00:20:24;101217.71;;;1.90;54.37
68380;BME280;57711;53.196;19.638;2023-04-04T00:22:52;101211.73;;;1.87;54.27
68380;BME280;57711;53.196;19.638;2023-04-04T00:25:19;101212.67;;;1.86;54.42
68380;BME280;57711;53.196;19.638;2023-04-04T00:27:47;101210.20;;;1.85;54.33
68380;BME280;57711;53.196;19.638;2023-04-04T00:30:14;101209.15;;;1.85;54.33
68380;BME280;57711;53.196;19.638;2023-04-04T00:32:42;101206.70;;;1.83;54.39
68380;BME280;57711;53.196;19.638;2023-04-04T00:35:09;101204.94;;;1.83;54.40
68380;BME280;57711;53.196;19.638;2023-04-04T00:37:36;101206.90;;;1.83;54.51
68380;BME280;57711;53.196;19.638;2023-04-04T00:40:05;101204.45;;;1.82;54.45
68380;BME280;57711;53.196;19.638;2023-04-04T00:42:33;101200.23;;;1.80;54.39
68380;BME280;57711;53.196;19.638;2023-04-04T00:45:01;101195.19;;;1.81;54.48
68380;BME280;57711;53.196;19.638;2023-04-04T00:47:31;101194.07;;;1.83;54.42
68380;BME280;57711;53.196;19.638;2023-04-04T00:49:59;101192.50;;;1.86;54.37
68380;BME280;57711;53.196;19.638;2023-04-04T00:52:28;101188.02;;;1.87;54.29
68380;BME280;57711;53.196;19.638;2023-04-04T00:54:55;101190.29;;;1.88;54.29
68380;BME280;57711;53.196;19.638;2023-04-04T00:57:23;101187.77;;;1.89;54.24
68380;BME280;57711;53.196;19.638;2023-04-04T00:59:50;101186.29;;;1.91;54.35
68380;BME280;57711;53.196;19.638;2023-04-04T01:02:18;101184.65;;;1.92;54.35
68380;BME280;57711;53.196;19.638;2023-04-04T01:04:45;101180.36;;;1.92;54.39
68380;BME280;57711;53.196;19.638;2023-04-04T01:07:13;101178.94;;;1.92;54.37
68380;BME280;57711;53.196;19.638;2023-04-04T01:09:40;101175.46;;;1.89;54.46
68380;BME280;57711;53.196;19.638;2023-04-04T01:12:08;101171.08;;;1.87;54.43
68380;BME280;57711;53.196;19.638;2023-04-04T01:14:36;101168.71;;;1.83;54.35
68380;BME280;57711;53.196;19.638;2023-04-04T01:17:04;101171.00;;;1.80;54.38
68380;BME280;57711;53.196;19.638;2023-04-04T01:20:06;101168.96;;;1.77;54.43
68380;BME280;57711;53.196;19.638;2023-04-04T01:22:44;101168.39;;;1.74;54.40
68380;BME280;57711;53.196;19.638;2023-04-04T01:25:13;101167.11;;;1.70;54.38
68380;BME280;57711;53.196;19.638;2023-04-04T01:27:44;101164.18;;;1.67;54.41
68380;BME280;57711;53.196;19.638;2023-04-04T01:30:15;101159.14;;;1.64;54.47
68380;BME280;57711;53.196;19.638;2023-04-04T01:32:44;101160.26;;;1.62;54.42
68380;BME280;57711;53.196;19.638;2023-04-04T01:35:31;101156.42;;;1.60;54.42
68380;BME280;57711;53.196;19.638;2023-04-04T01:40:34;101155.80;;;1.53;54.40
68380;BME280;57711;53.196;19.638;2023-04-04T01:43:04;101152.85;;;1.50;54.49
68380;BME280;57711;53.196;19.638;2023-04-04T01:45:33;101150.07;;;1.48;54.54
68380;BME280;57711;53.196;19.638;2023-04-04T01:48:05;101145.27;;;1.48;54.64
68380;BME280;57711;53.196;19.638;2023-04-04T01:50:32;101147.27;;;1.47;54.51
68380;BME280;57711;53.196;19.638;2023-04-04T01:53:00;101144.08;;;1.47;54.56
68380;BME280;57711;53.196;19.638;2023-04-04T01:55:27;101141.13;;;1.45;54.51
68380;BME280;57711;53.196;19.638;2023-04-04T01:57:54;101140.98;;;1.44;54.52
68380;BME280;57711;53.196;19.638;2023-04-04T02:00:21;101143.17;;;1.42;54.52
68380;BME280;57711;53.196;19.638;2023-04-04T02:02:48;101142.84;;;1.41;54.55
68380;BME280;57711;53.196;19.638;2023-04-04T02:05:16;101141.19;;;1.43;54.50
68380;BME280;57711;53.196;19.638;2023-04-04T02:07:52;101137.01;;;1.45;54.57
68380;BME280;57711;53.196;19.638;2023-04-04T02:10:25;101138.80;;;1.50;54.58
68380;BME280;57711;53.196;19.638;2023-04-04T02:12:52;101136.56;;;1.53;54.50
68380;BME280;57711;53.196;19.638;2023-04-04T02:15:21;101139.88;;;1.55;54.57
68380;BME280;57711;53.196;19.638;2023-04-04T02:17:49;101136.11;;;1.55;54.54
68380;BME280;57711;53.196;19.638;2023-04-04T02:20:17;101140.58;;;1.55;54.51
68380;BME280;57711;53.196;19.638;2023-04-04T02:22:52;101134.86;;;1.55;54.60
68380;BME280;57711;53.196;19.638;2023-04-04T02:25:21;101131.13;;;1.55;54.64
68380;BME280;57711;53.196;19.638;2023-04-04T02:27:49;101128.67;;;1.54;54.62
68380;BME280;57711;53.196;19.638;2023-04-04T02:30:17;101125.81;;;1.54;54.59
68380;BME280;57711;53.196;19.638;2023-04-04T02:32:45;101121.17;;;1.54;54.66
68380;BME280;57711;53.196;19.638;2023-04-04T02:35:15;101119.05;;;1.54;54.67
68380;BME280;57711;53.196;19.638;2023-04-04T02:37:45;101118.59;;;1.52;54.67
68380;BME280;57711;53.196;19.638;2023-04-04T02:40:19;101121.31;;;1.50;54.67
68380;BME280;57711;53.196;19.638;2023-04-04T02:42:46;101118.40;;;1.47;54.69
68380;BME280;57711;53.196;19.638;2023-04-04T02:45:14;101119.34;;;1.46;54.76
68380;BME280;57711;53.196;19.638;2023-04-04T02:47:50;101119.97;;;1.44;54.63
68380;BME280;57711;53.196;19.638;2023-04-04T02:50:20;101115.64;;;1.40;54.61
68380;BME280;57711;53.196;19.638;2023-04-04T02:52:52;101112.35;;;1.38;54.78
68380;BME280;57711;53.196;19.638;2023-04-04T02:55:21;101108.65;;;1.37;54.76
68380;BME280;57711;53.196;19.638;2023-04-04T02:57:51;101108.70;;;1.35;54.79
68380;BME280;57711;53.196;19.638;2023-04-04T03:00:18;101104.88;;;1.33;54.77
68380;BME280;57711;53.196;19.638;2023-04-04T03:02:52;101109.55;;;1.31;54.73
68380;BME280;57711;53.196;19.638;2023-04-04T03:05:23;101106.25;;;1.29;54.83
68380;BME280;57711;53.196;19.638;2023-04-04T03:07:54;101103.86;;;1.26;54.80
68380;BME280;57711;53.196;19.638;2023-04-04T03:10:23;101108.46;;;1.27;54.78
68380;BME280;57711;53.196;19.638;2023-04-04T03:12:51;101110.16;;;1.29;54.80
68380;BME280;57711;53.196;19.638;2023-04-04T03:15:20;101108.95;;;1.33;54.76
68380;BME280;57711;53.196;19.638;2023-04-04T03:17:48;101106.50;;;1.37;54.89
68380;BME280;57711;53.196;19.638;2023-04-04T03:20:15;101105.98;;;1.41;54.79
68380;BME280;57711;53.196;19.638;2023-04-04T03:22:43;101103.20;;;1.43;54.88
68380;BME280;57711;53.196;19.638;2023-04-04T03:25:10;101102.23;;;1.45;54.91
68380;BME280;57711;53.196;19.638;2023-04-04T03:27:38;101098.94;;;1.48;54.82
68380;BME280;57711;53.196;19.638;2023-04-04T03:30:09;101097.83;;;1.49;54.92
68380;BME280;57711;53.196;19.638;2023-04-04T03:32:37;101093.34;;;1.50;54.94
68380;BME280;57711;53.196;19.638;2023-04-04T03:35:06;101090.80;;;1.51;54.88
68380;BME280;57711;53.196;19.638;2023-04-04T03:37:33;101092.92;;;1.51;54.92
68380;BME280;57711;53.196;19.638;2023-04-04T03:40:01;101092.95;;;1.51;54.91
68380;BME280;57711;53.196;19.638;2023-04-04T03:42:33;101093.88;;;1.50;54.91
68380;BME280;57711;53.196;19.638;2023-04-04T03:45:03;101095.20;;;1.48;54.92
68380;BME280;57711;53.196;19.638;2023-04-04T03:47:31;101099.02;;;1.46;54.97
68380;BME280;57711;53.196;19.638;2023-04-04T03:50:01;101097.11;;;1.45;54.94
68380;BME280;57711;53.196;19.638;2023-04-04T03:52:28;101098.73;;;1.44;54.98
68380;BME280;57711;53.196;19.638;2023-04-04T03:54:57;101099.48;;;1.44;55.04
68380;BME280;57711;53.196;19.638;2023-04-04T03:57:25;101099.15;;;1.42;55.03
68380;BME280;57711;53.196;19.638;2023-04-04T03:59:53;101101.14;;;1.41;55.10
68380;BME280;57711;53.196;19.638;2023-04-04T04:02:21;101106.73;;;1.40;54.97
68380;BME280;57711;53.196;19.638;2023-04-04T04:04:48;101104.45;;;1.39;55.07
68380;BME280;57711;53.196;19.638;2023-04-04T04:07:15;101103.27;;;1.38;55.01
68380;BME280;57711;53.196;19.638;2023-04-04T04:09:43;101105.06;;;1.37;55.04
68380;BME280;57711;53.196;19.638;2023-04-04T04:12:11;101101.74;;;1.35;55.10
68380;BME280;57711;53.196;19.638;2023-04-04T04:14:40;101101.63;;;1.33;55.05
68380;BME280;57711;53.196;19.638;2023-04-04T04:17:08;101100.70;;;1.30;55.10
68380;BME280;57711;53.196;19.638;2023-04-04T04:19:35;101108.78;;;1.28;55.02
68380;BME280;57711;53.196;19.638;2023-04-04T04:22:02;101101.97;;;1.29;55.03
68380;BME280;57711;53.196;19.638;2023-04-04T04:24:30;101103.48;;;1.31;55.06
68380;BME280;57711;53.196;19.638;2023-04-04T04:26:58;101101.84;;;1.32;55.02
68380;BME280;57711;53.196;19.638;2023-04-04T04:29:25;101100.67;;;1.35;55.04
68380;BME280;57711;53.196;19.638;2023-04-04T04:31:52;101100.45;;;1.36;55.02
68380;BME280;57711;53.196;19.638;2023-04-04T04:34:20;101098.27;;;1.38;55.09
68380;BME280;57711;53.196;19.638;2023-04-04T04:36:48;101096.05;;;1.40;55.15
68380;BME280;57711;53.196;19.638;2023-04-04T04:39:24;101092.02;;;1.38;55.15
68380;BME280;57711;53.196;19.638;2023-04-04T04:42:11;101089.60;;;1.36;55.07
68380;BME280;57711;53.196;19.638;2023-04-04T04:44:45;101083.52;;;1.36;55.14
68380;BME280;57711;53.196;19.638;2023-04-04T04:47:12;101081.09;;;1.35;55.13
68380;BME280;57711;53.196;19.638;2023-04-04T04:49:39;101081.83;;;1.35;55.09
68380;BME280;57711;53.196;19.638;2023-04-04T04:52:08;101080.42;;;1.34;55.06
68380;BME280;57711;53.196;19.638;2023-04-04T04:54:39;101078.73;;;1.31;55.12
68380;BME280;57711;53.196;19.638;2023-04-04T04:57:06;101078.07;;;1.30;55.09
68380;BME280;57711;53.196;19.638;2023-04-04T04:59:35;101080.27;;;1.29;55.14
68380;BME280;57711;53.196;19.638;2023-04-04T05:02:03;101083.59;;;1.30;55.18
68380;BME280;57711;53.196;19.638;2023-04-04T05:04:34;101086.02;;;1.32;55.27
68380;BME280;57711;53.196;19.638;2023-04-04T05:07:03;101083.70;;;1.32;55.21
68380;BME280;57711;53.196;19.638;2023-04-04T05:09:33;101083.83;;;1.33;55.26
68380;BME280;57711;53.196;19.638;2023-04-04T05:12:00;101084.86;;;1.35;55.20
68380;BME280;57711;53.196;19.638;2023-04-04T05:14:35;101081.92;;;1.36;55.31
68380;BME280;57711;53.196;19.638;2023-04-04T05:17:04;101082.26;;;1.37;55.32
68380;BME280;57711;53.196;19.638;2023-04-04T05:19:32;101085.22;;;1.39;55.34
68380;BME280;57711;53.196;19.638;2023-04-04T05:22:00;101087.17;;;1.39;55.33
68380;BME280;57711;53.196;19.638;2023-04-04T05:24:32;101094.80;;;1.39;55.36
68380;BME280;57711;53.196;19.638;2023-04-04T05:26:59;101093.98;;;1.42;55.42
68380;BME280;57711;53.196;19.638;2023-04-04T05:29:31;101096.18;;;1.46;55.43
68380;BME280;57711;53.196;19.638;2023-04-04T05:32:01;101093.74;;;1.49;55.56
68380;BME280;57711;53.196;19.638;2023-04-04T05:34:29;101101.73;;;1.55;55.47
68380;BME280;57711;53.196;19.638;2023-04-04T05:36:56;101099.67;;;1.57;55.43
68380;BME280;57711;53.196;19.638;2023-04-04T05:39:24;101096.59;;;1.59;55.42
68380;BME280;57711;53.196;19.638;2023-04-04T05:41:59;101096.07;;;1.67;55.44
68380;BME280;57711;53.196;19.638;2023-04-04T05:44:29;101100.33;;;1.77;55.62
68380;BME280;57711;53.196;19.638;2023-04-04T05:46:56;101099.96;;;1.86;55.54
68380;BME280;57711;53.196;19.638;2023-04-04T05:49:25;101097.98;;;1.96;55.51
68380;BME280;57711;53.196;19.638;2023-04-04T05:51:55;101094.79;;;2.04;55.64
68380;BME280;57711;53.196;19.638;2023-04-04T05:54:24;101099.95;;;2.14;55.57
68380;BME280;57711;53.196;19.638;2023-04-04T05:56:51;101096.39;;;2.22;55.65
68380;BME280;57711;53.196;19.638;2023-04-04T05:59:28;101096.14;;;2.28;55.46
68380;BME280;57711;53.196;19.638;2023-04-04T06:02:00;101101.02;;;2.36;55.61
68380;BME280;57711;53.196;19.638;2023-04-04T06:04:28;101097.56;;;2.41;55.58
68380;BME280;57711;53.196;19.638;2023-04-04T06:06:57;101103.64;;;2.45;55.55
68380;BME280;57711;53.196;19.638;2023-04-04T06:09:25;101100.97;;;2.49;55.66
68380;BME280;57711;53.196;19.638;2023-04-04T06:11:53;101096.28;;;2.55;55.69
68380;BME280;57711;53.196;19.638;2023-04-04T06:14:21;101096.29;;;2.58;55.70
68380;BME280;57711;53.196;19.638;2023-04-04T06:16:48;101097.68;;;2.63;55.72
68380;BME280;57711;53.196;19.638;2023-04-04T06:19:15;101091.31;;;2.67;55.73
68380;BME280;57711;53.196;19.638;2023-04-04T06:21:43;101090.77;;;2.66;55.51
68380;BME280;57711;53.196;19.638;2023-04-04T06:24:11;101091.60;;;2.64;55.52
68380;BME280;57711;53.196;19.638;2023-04-04T06:26:38;101089.99;;;2.64;55.62
68380;BME280;57711;53.196;19.638;2023-04-04T06:29:06;101089.60;;;2.65;55.61
68380;BME280;57711;53.196;19.638;2023-04-04T06:31:35;101091.98;;;2.68;55.67
68380;BME280;57711;53.196;19.638;2023-04-04T06:34:09;101085.80;;;2.70;55.54
68380;BME280;57711;53.196;19.638;2023-04-04T06:36:56;101081.17;;;2.74;55.72
68380;BME280;57711;53.196;19.638;2023-04-04T06:39:27;101080.54;;;2.76;55.64
68380;BME280;57711;53.196;19.638;2023-04-04T06:41:57;101080.63;;;2.78;55.63
68380;BME280;57711;53.196;19.638;2023-04-04T06:44:27;101081.80;;;2.80;55.59
68380;BME280;57711;53.196;19.638;2023-04-04T06:46:55;101081.39;;;2.81;55.59
68380;BME280;57711;53.196;19.638;2023-04-04T06:49:23;101081.02;;;2.82;55.58
68380;BME280;57711;53.196;19.638;2023-04-04T06:51:50;101079.30;;;2.84;55.58
68380;BME280;57711;53.196;19.638;2023-04-04T06:54:19;101078.16;;;2.86;55.55
68380;BME280;57711;53.196;19.638;2023-04-04T06:56:46;101072.23;;;2.87;55.60
68380;BME280;57711;53.196;19.638;2023-04-04T06:59:13;101073.23;;;2.88;55.48
68380;BME280;57711;53.196;19.638;2023-04-04T07:01:40;101070.25;;;2.91;55.53
68380;BME280;57711;53.196;19.638;2023-04-04T07:04:08;101071.82;;;2.96;55.72
68380;BME280;57711;53.196;19.638;2023-04-04T07:06:35;101071.29;;;2.99;55.63
68380;BME280;57711;53.196;19.638;2023-04-04T07:09:02;101071.35;;;3.02;55.51
68380;BME280;57711;53.196;19.638;2023-04-04T07:11:33;101067.62;;;3.01;55.41
68380;BME280;57711;53.196;19.638;2023-04-04T07:14:00;101063.27;;;3.03;55.54
68380;BME280;57711;53.196;19.638;2023-04-04T07:16:27;101061.67;;;3.07;55.60
68380;BME280;57711;53.196;19.638;2023-04-04T07:18:54;101060.38;;;3.12;55.57
68380;BME280;57711;53.196;19.638;2023-04-04T07:21:22;101058.16;;;3.17;55.49
68380;BME280;57711;53.196;19.638;2023-04-04T07:23:50;101053.59;;;3.24;55.49
68380;BME280;57711;53.196;19.638;2023-04-04T07:26:17;101055.65;;;3.29;55.52
68380;BME280;57711;53.196;19.638;2023-04-04T07:28:44;101054.23;;;3.33;55.40
68380;BME280;57711;53.196;19.638;2023-04-04T07:31:12;101052.00;;;3.39;55.44
68380;BME280;57711;53.196;19.638;2023-04-04T07:33:40;101049.36;;;3.46;55.54
68380;BME280;57711;53.196;19.638;2023-04-04T07:36:07;101050.02;;;3.54;55.50
68380;BME280;57711;53.196;19.638;2023-04-04T07:38:35;101049.18;;;3.61;55.48
68380;BME280;57711;53.196;19.638;2023-04-04T07:41:03;101051.73;;;3.67;55.46
68380;BME280;57711;53.196;19.638;2023-04-04T07:43:30;101053.80;;;3.72;55.39
68380;BME280;57711;53.196;19.638;2023-04-04T07:45:57;101051.23;;;3.77;55.42
68380;BME280;57711;53.196;19.638;2023-04-04T07:48:25;101049.55;;;3.79;55.50
68380;BME280;57711;53.196;19.638;2023-04-04T07:50:53;101048.05;;;3.81;55.29
68380;BME280;57711;53.196;19.638;2023-04-04T07:53:20;101048.27;;;3.80;55.40
68380;BME280;57711;53.196;19.638;2023-04-04T07:55:48;101049.37;;;3.79;55.22
68380;BME280;57711;53.196;19.638;2023-04-04T07:58:15;101045.73;;;3.76;55.19
68380;BME280;57711;53.196;19.638;2023-04-04T08:00:42;101054.14;;;3.73;55.12
68380;BME280;57711;53.196;19.638;2023-04-04T08:03:10;101056.15;;;3.68;55.12
68380;BME280;57711;53.196;19.638;2023-04-04T08:05:40;101053.04;;;3.63;55.04
68380;BME280;57711;53.196;19.638;2023-04-04T08:08:07;101052.63;;;3.60;55.26
68380;BME280;57711;53.196;19.638;2023-04-04T08:10:34;101051.31;;;3.61;55.23
68380;BME280;57711;53.196;19.638;2023-04-04T08:13:01;101053.48;;;3.60;55.18
68380;BME280;57711;53.196;19.638;2023-04-04T08:15:30;101053.92;;;3.58;55.22
68380;BME280;57711;53.196;19.638;2023-04-04T08:17:57;101055.84;;;3.56;55.18
68380;BME280;57711;53.196;19.638;2023-04-04T08:20:25;101057.58;;;3.53;55.14
68380;BME280;57711;53.196;19.638;2023-04-04T08:22:53;101055.13;;;3.52;55.11
68380;BME280;57711;53.196;19.638;2023-04-04T08:25:20;101053.40;;;3.51;55.07
68380;BME280;57711;53.196;19.638;2023-04-04T08:27:47;101048.09;;;3.50;55.11
68380;BME280;57711;53.196;19.638;2023-04-04T08:30:14;101043.27;;;3.50;55.05
68380;BME280;57711;53.196;19.638;2023-04-04T08:32:41;101039.35;;;3.49;55.11
68380;BME280;57711;53.196;19.638;2023-04-04T08:35:11;101038.84;;;3.49;55.25
68380;BME280;57711;53.196;19.638;2023-04-04T08:37:43;101038.86;;;3.48;55.05
68380;BME280;57711;53.196;19.638;2023-04-04T08:40:12;101040.54;;;3.47;55.00
68380;BME280;57711;53.196;19.638;2023-04-04T08:42:40;101042.94;;;3.45;55.02
68380;BME280;57711;53.196;19.638;2023-04-04T08:45:11;101038.91;;;3.44;54.95
68380;BME280;57711;53.196;19.638;2023-04-04T08:47:38;101039.98;;;3.43;55.05
68380;BME280;57711;53.196;19.638;2023-04-04T08:50:07;101036.16;;;3.45;54.97
68380;BME280;57711;53.196;19.638;2023-04-04T08:52:35;101039.85;;;3.46;54.84
68380;BME280;57711;53.196;19.638;2023-04-04T08:55:04;101037.92;;;3.45;54.79
68380;BME280;57711;53.196;19.638;2023-04-04T08:57:31;101038.86;;;3.45;54.84
68380;BME280;57711;53.196;19.638;2023-04-04T08:59:59;101036.85;;;3.45;54.82
68380;BME280;57711;53.196;19.638;2023-04-04T09:02:33;101035.28;;;3.48;54.95
68380;BME280;57711;53.196;19.638;2023-04-04T09:05:03;101038.83;;;3.53;54.91
68380;BME280;57711;53.196;19.638;2023-04-04T09:07:34;101039.77;;;3.55;54.93
68380;BME280;57711;53.196;19.638;2023-04-04T09:10:07;101037.86;;;3.58;54.94
68380;BME280;57711;53.196;19.638;2023-04-04T09:12:36;101038.40;;;3.62;54.88
68380;BME280;57711;53.196;19.638;2023-04-04T09:15:06;101038.79;;;3.65;54.82
68380;BME280;57711;53.196;19.638;2023-04-04T09:17:33;101039.27;;;3.66;54.83
68380;BME280;57711;53.196;19.638;2023-04-04T09:20:01;101036.94;;;3.69;54.86
68380;BME280;57711;53.196;19.638;2023-04-04T09:22:30;101036.57;;;3.74;54.82
68380;BME280;57711;53.196;19.638;2023-04-04T09:24:57;101035.15;;;3.77;54.85
68380;BME280;57711;53.196;19.638;2023-04-04T09:27:24;101033.91;;;3.81;54.85
68380;BME280;57711;53.196;19.638;2023-04-04T09:29:51;101030.52;;;3.84;54.78
68380;BME280;57711;53.196;19.638;2023-04-04T09:32:19;101030.52;;;3.88;54.88
68380;BME280;57711;53.196;19.638;2023-04-04T09:34:49;101028.98;;;3.90;54.78
68380;BME280;57711;53.196;19.638;2023-04-04T09:37:16;101025.35;;;3.91;54.63
68380;BME280;57711;53.196;19.638;2023-04-04T09:39:44;101023.91;;;3.91;54.80
68380;BME280;57711;53.196;19.638;2023-04-04T09:42:13;101026.69;;;3.93;54.75
68380;BME280;57711;53.196;19.638;2023-04-04T09:44:41;101025.58;;;3.90;54.73
68380;BME280;57711;53.196;19.638;2023-04-04T09:47:27;101022.04;;;3.89;54.76
68380;BME280;57711;53.196;19.638;2023-04-04T09:49:58;101021.80;;;3.90;54.93
68380;BME280;57711;53.196;19.638;2023-04-04T09:52:26;101024.84;;;3.94;54.88
68380;BME280;57711;53.196;19.638;2023-04-04T09:55:00;101024.70;;;3.97;54.91
68380;BME280;57711;53.196;19.638;2023-04-04T09:57:29;101029.25;;;4.03;54.97
68380;BME280;57711;53.196;19.638;2023-04-04T10:00:01;101028.15;;;4.07;54.95
68380;BME280;57711;53.196;19.638;2023-04-04T10:02:36;101028.45;;;4.11;54.94
68380;BME280;57711;53.196;19.638;2023-04-04T10:05:07;101030.13;;;4.14;54.86
68380;BME280;57711;53.196;19.638;2023-04-04T10:07:39;101031.48;;;4.15;54.77
68380;BME280;57711;53.196;19.638;2023-04-04T10:10:08;101030.95;;;4.15;54.71
68380;BME280;57711;53.196;19.638;2023-04-04T10:12:36;101030.13;;;4.17;54.80
68380;BME280;57711;53.196;19.638;2023-04-04T10:15:04;101032.10;;;4.21;54.92
68380;BME280;57711;53.196;19.638;2023-04-04T10:17:39;101028.41;;;4.23;54.82
68380;BME280;57711;53.196;19.638;2023-04-04T10:20:08;101027.59;;;4.25;54.67
68380;BME280;57711;53.196;19.638;2023-04-04T10:22:37;101023.08;;;4.26;54.76
68380;BME280;57711;53.196;19.638;2023-04-04T10:25:05;101017.85;;;4.27;54.72
68380;BME280;57711;53.196;19.638;2023-04-04T10:27:33;101022.58;;;4.29;54.61
68380;BME280;57711;53.196;19.638;2023-04-04T10:30:00;101019.27;;;4.30;54.66
68380;BME280;57711;53.196;19.638;2023-04-04T10:32:44;101017.51;;;4.30;54.69
68380;BME280;57711;53.196;19.638;2023-04-04T10:35:20;101012.34;;;4.26;54.55
68380;BME280;57711;53.196;19.638;2023-04-04T10:37:56;101016.94;;;4.24;54.66
68380;BME280;57711;53.196;19.638;2023-04-04T10:40:30;101015.52;;;4.23;54.62
68380;BME280;57711;53.196;19.638;2023-04-04T10:43:04;101018.19;;;4.23;54.67
68380;BME280;57711;53.196;19.638;2023-04-04T10:45:34;101016.79;;;4.26;54.64
68380;BME280;57711;53.196;19.638;2023-04-04T10:48:05;101019.98;;;4.27;54.75
68380;BME280;57711;53.196;19.638;2023-04-04T10:50:37;101018.45;;;4.29;54.77
68380;BME280;57711;53.196;19.638;2023-04-04T10:53:05;101018.67;;;4.32;54.63
68380;BME280;57711;53.196;19.638;2023-04-04T10:55:34;101020.67;;;4.35;54.76
68380;BME280;57711;53.196;19.638;2023-04-04T10:58:04;101016.29;;;4.36;54.58
68380;BME280;57711;53.196;19.638;2023-04-04T11:00:32;101014.70;;;4.36;54.54
68380;BME280;57711;53.196;19.638;2023-04-04T11:03:00;101014.75;;;4.35;54.53
68380;BME280;57711;53.196;19.638;2023-04-04T11:05:35;101011.33;;;4.35;54.60
68380;BME280;57711;53.196;19.638;2023-04-04T11:08:16;101016.73;;;4.38;54.63
68380;BME280;57711;53.196;19.638;2023-04-04T11:10:50;101012.38;;;4.39;54.54
68380;BME280;57711;53.196;19.638;2023-04-04T11:13:32;101006.70;;;4.42;54.51
68380;BME280;57711;53.196;19.638;2023-04-04T11:21:19;101009.42;;;4.44;54.48
68380;BME280;57711;53.196;19.638;2023-04-04T11:28:59;101005.97;;;4.49;54.42
68380;BME280;57711;53.196;19.638;2023-04-04T11:31:31;101003.96;;;4.50;54.47
68380;BME280;57711;53.196;19.638;2023-04-04T11:34:07;101004.23;;;4.51;54.46
68380;BME280;57711;53.196;19.638;2023-04-04T11:39:12;100999.20;;;4.52;54.38
68380;BME280;57711;53.196;19.638;2023-04-04T11:44:17;100996.63;;;4.53;54.12
68380;BME280;57711;53.196;19.638;2023-04-04T11:46:44;100997.64;;;4.54;54.24
68380;BME280;57711;53.196;19.638;2023-04-04T11:49:16;100992.48;;;4.58;54.32
68380;BME280;57711;53.196;19.638;2023-04-04T11:51:44;100993.65;;;4.62;54.26
68380;BME280;57711;53.196;19.638;2023-04-04T11:54:16;100987.23;;;4.68;54.39
68380;BME280;57711;53.196;19.638;2023-04-04T11:56:43;100983.84;;;4.75;54.20
68380;BME280;57711;53.196;19.638;2023-04-04T11:59:11;100977.90;;;4.82;54.24
68380;BME280;57711;53.196;19.638;2023-04-04T12:01:39;100977.74;;;4.88;54.28
68380;BME280;57711;53.196;19.638;2023-04-04T12:04:08;100975.21;;;4.99;54.22
68380;BME280;57711;53.196;19.638;2023-04-04T12:06:36;100976.48;;;5.08;54.12
68380;BME280;57711;53.196;19.638;2023-04-04T12:09:04;100973.77;;;5.15;54.27
68380;BME280;57711;53.196;19.638;2023-04-04T12:11:35;100972.77;;;5.21;54.21
68380;BME280;57711;53.196;19.638;2023-04-04T12:14:03;100970.06;;;5.20;54.05
68380;BME280;57711;53.196;19.638;2023-04-04T12:16:30;100966.83;;;5.18;53.92
68380;BME280;57711;53.196;19.638;2023-04-04T12:19:00;100966.00;;;5.17;54.20
68380;BME280;57711;53.196;19.638;2023-04-04T12:21:30;100966.75;;;5.16;53.91
68380;BME280;57711;53.196;19.638;2023-04-04T12:23:58;100964.09;;;5.15;53.91
68380;BME280;57711;53.196;19.638;2023-04-04T12:26:25;100964.64;;;5.15;53.98
68380;BME280;57711;53.196;19.638;2023-04-04T12:28:56;100963.64;;;5.17;54.09
68380;BME280;57711;53.196;19.638;2023-04-04T12:31:24;100962.13;;;5.18;54.05
68380;BME280;57711;53.196;19.638;2023-04-04T12:33:53;100960.09;;;5.16;53.84
68380;BME280;57711;53.196;19.638;2023-04-04T12:36:24;100958.39;;;5.11;53.90
68380;BME280;57711;53.196;19.638;2023-04-04T12:39:00;100956.14;;;5.10;53.96
68380;BME280;57711;53.196;19.638;2023-04-04T12:41:27;100955.52;;;5.11;53.89
68380;BME280;57711;53.196;19.638;2023-04-04T12:44:05;100951.01;;;5.12;53.83
68380;BME280;57711;53.196;19.638;2023-04-04T12:46:39;100948.08;;;5.09;53.72
68380;BME280;57711;53.196;19.638;2023-04-04T12:49:12;100943.23;;;5.13;53.75
68380;BME280;57711;53.196;19.638;2023-04-04T12:51:40;100934.48;;;5.32;54.11
68380;BME280;57711;53.196;19.638;2023-04-04T12:54:24;100935.90;;;5.54;54.15
68380;BME280;57711;53.196;19.638;2023-04-04T12:56:56;100931.33;;;5.71;54.03
68380;BME280;57711;53.196;19.638;2023-04-04T12:59:28;100929.08;;;5.85;54.03
68380;BME280;57711;53.196;19.638;2023-04-04T13:01:57;100925.89;;;5.97;53.85
68380;BME280;57711;53.196;19.638;2023-04-04T13:04:24;100924.30;;;6.00;53.57
68380;BME280;57711;53.196;19.638;2023-04-04T13:06:51;100922.17;;;5.99;53.55
68380;BME280;57711;53.196;19.638;2023-04-04T13:09:21;100918.79;;;6.02;53.60
68380;BME280;57711;53.196;19.638;2023-04-04T13:17:22;100912.74;;;5.92;53.44
68380;BME280;57711;53.196;19.638;2023-04-04T13:19:50;100906.41;;;6.05;53.52
68380;BME280;57711;53.196;19.638;2023-04-04T13:22:17;100904.61;;;6.11;53.60
68380;BME280;57711;53.196;19.638;2023-04-04T13:24:44;100905.31;;;6.05;53.34